Time;durP1;ratioP1;P1;durP2;ratioP2;P2;SDS_P1;SDS_P2;PMS_P1;PMS_P2;Temp;Humidity;BMP_temperature;BMP_pressure;BME280_temperature;BME280_humidity;BME280_pressure;Samples;Min_cycle;Max_cycle;Signal;HPM_P1;HPM_P2
2022/12/08 00:00:51;;;;;;;13.63;5.70;;;;;;;;;;5071342;28;20473;-47
2022/12/08 00:03:17;;;;;;;7.17;5.70;;;;;;;;;;5071690;28;20438;-47
2022/12/08 00:11:15;;;;;;;6.77;5.50;;;;;;;;;;5071688;28;20551;-47
2022/12/08 00:13:41;;;;;;;7.03;5.87;;;;;;;;;;5070884;28;20453;-47
2022/12/08 00:16:07;;;;;;;5.77;5.20;;;;;;;;;;5057451;28;20474;-47
2022/12/08 00:18:34;;;;;;;8.90;5.63;;;;;;;;;;5051185;28;20584;-47
2022/12/08 00:21:01;;;;;;;6.60;5.63;;;;;;;;;;5054462;28;20442;-47
2022/12/08 00:23:27;;;;;;;7.67;5.80;;;;;;;;;;5055122;28;20439;-46
2022/12/08 00:25:53;;;;;;;6.40;5.80;;;;;;;;;;5055015;28;20467;-47
2022/12/08 00:28:20;;;;;;;9.30;6.60;;;;;;;;;;5055136;28;20466;-46
2022/12/08 00:30:46;;;;;;;6.83;6.13;;;;;;;;;;5055100;28;20200;-47
2022/12/08 00:33:12;;;;;;;10.27;6.67;;;;;;;;;;5054954;28;20427;-47
2022/12/08 00:35:38;;;;;;;8.60;6.27;;;;;;;;;;5057858;28;20476;-46
2022/12/08 00:38:05;;;;;;;8.53;5.97;;;;;;;;;;5074504;28;20573;-47
2022/12/08 00:40:31;;;;;;;9.17;6.03;;;;;;;;;;5074687;28;20678;-47
2022/12/08 00:42:57;;;;;;;10.70;6.10;;;;;;;;;;5074806;28;20484;-47
2022/12/08 00:45:23;;;;;;;8.00;6.47;;;;;;;;;;5074702;28;20279;-47
2022/12/08 00:47:49;;;;;;;7.47;6.23;;;;;;;;;;5074574;28;20314;-47
2022/12/08 00:50:15;;;;;;;8.33;6.73;;;;;;;;;;5074146;28;20249;-47
2022/12/08 00:52:41;;;;;;;7.43;6.07;;;;;;;;;;5074555;28;20464;-47
2022/12/08 00:55:09;;;;;;;9.73;6.90;;;;;;;;;;5074612;28;20513;-47
2022/12/08 00:57:35;;;;;;;11.87;6.80;;;;;;;;;;5074351;28;20488;-47
2022/12/08 01:00:01;;;;;;;8.53;6.77;;;;;;;;;;5074569;28;20466;-47
2022/12/08 01:02:27;;;;;;;8.90;6.90;;;;;;;;;;5073995;28;20499;-47
2022/12/08 01:04:53;;;;;;;9.17;6.83;;;;;;;;;;5074485;28;20479;-47
2022/12/08 01:07:19;;;;;;;8.77;6.83;;;;;;;;;;5074441;28;20830;-47
2022/12/08 01:09:45;;;;;;;8.17;6.73;;;;;;;;;;5074169;28;20235;-47
2022/12/08 01:12:12;;;;;;;10.07;7.20;;;;;;;;;;5074301;28;20441;-47
2022/12/08 01:14:38;;;;;;;11.73;7.30;;;;;;;;;;5073792;28;20499;-47
2022/12/08 01:17:04;;;;;;;9.93;7.80;;;;;;;;;;5074206;28;20437;-47
2022/12/08 01:19:30;;;;;;;9.77;7.90;;;;;;;;;;5073967;28;20515;-47
2022/12/08 01:21:56;;;;;;;9.70;7.77;;;;;;;;;;5074061;28;20199;-46
2022/12/08 01:24:22;;;;;;;9.70;7.87;;;;;;;;;;5074011;28;20446;-47
2022/12/08 01:26:49;;;;;;;10.57;7.87;;;;;;;;;;5073619;28;20499;-46
2022/12/08 01:29:17;;;;;;;9.13;7.93;;;;;;;;;;5073863;28;20434;-47
2022/12/08 01:31:43;;;;;;;13.33;8.00;;;;;;;;;;5068873;28;20440;-48
2022/12/08 01:34:10;;;;;;;11.40;8.10;;;;;;;;;;5073785;28;20499;-48
2022/12/08 01:36:37;;;;;;;11.57;7.77;;;;;;;;;;5073494;28;20481;-48
2022/12/08 01:39:04;;;;;;;11.20;8.77;;;;;;;;;;5073649;28;20434;-48
2022/12/08 01:41:31;;;;;;;13.07;8.27;;;;;;;;;;5073370;28;20529;-48
2022/12/08 01:43:58;;;;;;;11.00;8.40;;;;;;;;;;5073641;28;20468;-48
2022/12/08 01:46:27;;;;;;;11.77;9.73;;;;;;;;;;5073636;28;20438;-48
2022/12/08 01:48:54;;;;;;;12.87;9.50;;;;;;;;;;5073480;28;20438;-48
2022/12/08 01:51:20;;;;;;;10.40;8.90;;;;;;;;;;5073386;28;20956;-48
2022/12/08 01:53:47;;;;;;;9.10;8.20;;;;;;;;;;5073204;28;20442;-48
2022/12/08 01:56:15;;;;;;;13.90;9.03;;;;;;;;;;5073190;28;20480;-48
2022/12/08 01:58:43;;;;;;;12.90;9.53;;;;;;;;;;5072958;28;20533;-48
2022/12/08 02:01:21;;;;;;;11.10;8.93;;;;;;;;;;5073122;28;20438;-47
2022/12/08 02:03:50;;;;;;;11.57;8.33;;;;;;;;;;5073007;28;20425;-49
2022/12/08 02:06:17;;;;;;;11.03;8.70;;;;;;;;;;5072971;28;20434;-49
2022/12/08 02:08:43;;;;;;;11.87;9.27;;;;;;;;;;5072774;28;20469;-48
2022/12/08 02:11:10;;;;;;;10.80;9.43;;;;;;;;;;5072910;28;20434;-49
2022/12/08 02:13:36;;;;;;;10.47;8.73;;;;;;;;;;5072770;28;20928;-49
2022/12/08 02:16:04;;;;;;;9.33;8.43;;;;;;;;;;5072780;28;20476;-48
2022/12/08 02:18:39;;;;;;;10.70;9.43;;;;;;;;;;5072674;28;20440;-48
2022/12/08 02:21:10;;;;;;;14.10;9.27;;;;;;;;;;5072824;28;20494;-48
2022/12/08 02:23:40;;;;;;;13.53;9.97;;;;;;;;;;5072773;28;20480;-49
2022/12/08 02:26:31;;;;;;;12.37;9.30;;;;;;;;;;5072696;28;20445;-49
2022/12/08 02:29:10;;;;;;;11.27;9.60;;;;;;;;;;5072680;28;20437;-48
2022/12/08 02:31:43;;;;;;;12.27;10.10;;;;;;;;;;5072519;28;21021;-48
2022/12/08 02:34:15;;;;;;;12.03;9.07;;;;;;;;;;5072520;28;20621;-48
2022/12/08 02:36:45;;;;;;;14.00;8.90;;;;;;;;;;5072275;28;20489;-49
2022/12/08 02:39:17;;;;;;;12.83;9.43;;;;;;;;;;5072455;28;20434;-49
2022/12/08 02:41:47;;;;;;;11.20;9.00;;;;;;;;;;5072254;28;20564;-49
2022/12/08 02:44:16;;;;;;;10.77;9.67;;;;;;;;;;5072058;28;20442;-49
2022/12/08 02:46:51;;;;;;;10.53;9.13;;;;;;;;;;5072139;28;20430;-49
2022/12/08 02:49:19;;;;;;;13.87;10.10;;;;;;;;;;5072210;28;20445;-49
2022/12/08 02:51:45;;;;;;;11.10;9.80;;;;;;;;;;5072030;28;20561;-48
2022/12/08 02:54:11;;;;;;;10.40;9.00;;;;;;;;;;5072157;28;20461;-49
2022/12/08 02:56:45;;;;;;;10.83;9.23;;;;;;;;;;5071932;28;20473;-49
2022/12/08 02:59:22;;;;;;;11.83;10.47;;;;;;;;;;5072131;28;20437;-48
2022/12/08 03:01:53;;;;;;;12.17;10.23;;;;;;;;;;5072068;28;20441;-49
2022/12/08 03:04:25;;;;;;;12.40;10.30;;;;;;;;;;5072078;28;20429;-49
2022/12/08 03:06:56;;;;;;;13.53;9.27;;;;;;;;;;5071825;28;20929;-48
2022/12/08 03:09:26;;;;;;;11.40;8.17;;;;;;;;;;5072143;28;20956;-49
2022/12/08 03:11:54;;;;;;;9.83;8.83;;;;;;;;;;5071915;28;20521;-49
2022/12/08 03:14:21;;;;;;;11.13;8.40;;;;;;;;;;5071849;28;20492;-48
2022/12/08 03:16:49;;;;;;;10.73;9.20;;;;;;;;;;5071621;28;20470;-49
2022/12/08 03:19:18;;;;;;;10.57;8.50;;;;;;;;;;5071843;28;20442;-49
2022/12/08 03:21:47;;;;;;;10.37;8.57;;;;;;;;;;5071523;28;20441;-49
2022/12/08 03:24:14;;;;;;;9.67;7.93;;;;;;;;;;5071737;28;20456;-49
2022/12/08 03:26:42;;;;;;;9.50;8.13;;;;;;;;;;5071624;28;20445;-49
2022/12/08 03:29:09;;;;;;;10.27;7.77;;;;;;;;;;5071725;28;20481;-49
2022/12/08 03:31:38;;;;;;;8.67;7.73;;;;;;;;;;5071652;28;20453;-50
2022/12/08 03:34:04;;;;;;;8.60;7.13;;;;;;;;;;5071723;28;20434;-49
2022/12/08 03:36:31;;;;;;;7.77;6.60;;;;;;;;;;5071468;28;20984;-49
2022/12/08 03:38:59;;;;;;;8.43;7.03;;;;;;;;;;5071732;28;20433;-49
2022/12/08 03:41:25;;;;;;;8.63;7.67;;;;;;;;;;5071523;28;20438;-49
2022/12/08 03:43:53;;;;;;;8.10;7.40;;;;;;;;;;5071484;28;20458;-49
2022/12/08 03:46:19;;;;;;;9.80;7.20;;;;;;;;;;5071676;28;20434;-49
2022/12/08 03:48:45;;;;;;;9.33;7.63;;;;;;;;;;5071403;28;20856;-49
2022/12/08 03:51:11;;;;;;;11.07;8.47;;;;;;;;;;5071400;28;20469;-49
2022/12/08 03:53:38;;;;;;;11.83;8.20;;;;;;;;;;5071737;28;20465;-49
2022/12/08 03:56:06;;;;;;;10.70;8.87;;;;;;;;;;5074752;28;20488;-49
2022/12/08 03:58:32;;;;;;;13.47;8.90;;;;;;;;;;5075345;28;20525;-49
2022/12/08 04:00:58;;;;;;;12.37;9.53;;;;;;;;;;5075549;28;20867;-49
2022/12/08 04:03:24;;;;;;;11.73;9.20;;;;;;;;;;5075256;28;20944;-49
2022/12/08 04:05:51;;;;;;;10.97;9.30;;;;;;;;;;5075190;28;20433;-49
2022/12/08 04:08:17;;;;;;;10.60;9.53;;;;;;;;;;5075400;28;20756;-49
2022/12/08 04:10:43;;;;;;;12.10;9.60;;;;;;;;;;5075156;28;20442;-49
2022/12/08 04:13:11;;;;;;;12.70;9.37;;;;;;;;;;5075446;28;20439;-49
2022/12/08 04:15:37;;;;;;;13.77;10.47;;;;;;;;;;5075068;28;20527;-49
2022/12/08 04:18:03;;;;;;;13.87;10.63;;;;;;;;;;5075191;28;20434;-47
2022/12/08 04:20:29;;;;;;;13.13;11.20;;;;;;;;;;5075274;28;20440;-47
2022/12/08 04:22:55;;;;;;;15.13;13.10;;;;;;;;;;5075059;28;20516;-49
2022/12/08 04:25:21;;;;;;;17.87;12.27;;;;;;;;;;5075025;28;20214;-49
2022/12/08 04:27:47;;;;;;;17.57;13.60;;;;;;;;;;5074718;28;20902;-48
2022/12/08 04:30:14;;;;;;;17.30;14.43;;;;;;;;;;5074906;28;20219;-48
2022/12/08 04:32:40;;;;;;;19.20;13.33;;;;;;;;;;5074708;28;20434;-47
2022/12/08 04:35:07;;;;;;;15.00;12.83;;;;;;;;;;5074712;28;20839;-48
2022/12/08 04:37:33;;;;;;;16.47;13.80;;;;;;;;;;5074735;28;20253;-46
2022/12/08 04:39:59;;;;;;;18.10;13.67;;;;;;;;;;5074690;28;20995;-47
2022/12/08 04:42:25;;;;;;;14.87;13.27;;;;;;;;;;5074613;28;20473;-47
2022/12/08 04:44:51;;;;;;;15.97;13.83;;;;;;;;;;5074670;28;20489;-48
2022/12/08 04:47:19;;;;;;;16.60;13.23;;;;;;;;;;5074516;28;20279;-46
2022/12/08 04:49:45;;;;;;;15.23;13.67;;;;;;;;;;5074358;28;20438;-48
2022/12/08 04:52:11;;;;;;;16.53;13.67;;;;;;;;;;5074303;28;20474;-48
2022/12/08 04:54:37;;;;;;;17.10;13.27;;;;;;;;;;5074405;28;20495;-48
2022/12/08 04:57:04;;;;;;;15.27;13.63;;;;;;;;;;5074090;28;20238;-48
2022/12/08 04:59:30;;;;;;;17.13;13.77;;;;;;;;;;5074225;28;20521;-47
2022/12/08 05:01:56;;;;;;;15.47;13.87;;;;;;;;;;5074296;28;20710;-49
2022/12/08 05:04:23;;;;;;;18.07;13.80;;;;;;;;;;5074258;28;20780;-47
2022/12/08 05:06:49;;;;;;;18.63;13.50;;;;;;;;;;5073766;28;20210;-49
2022/12/08 05:09:15;;;;;;;16.03;13.17;;;;;;;;;;5074212;28;20536;-49
2022/12/08 05:11:41;;;;;;;15.90;12.90;;;;;;;;;;5073964;28;20200;-49
2022/12/08 05:14:08;;;;;;;15.90;13.30;;;;;;;;;;5073956;28;20930;-49
2022/12/08 05:16:34;;;;;;;16.77;13.67;;;;;;;;;;5074024;28;20481;-49
2022/12/08 05:19:00;;;;;;;15.57;14.00;;;;;;;;;;5074116;28;20426;-49
2022/12/08 05:21:27;;;;;;;15.40;12.93;;;;;;;;;;5074027;28;20196;-49
2022/12/08 05:23:53;;;;;;;16.77;14.50;;;;;;;;;;5073945;28;20282;-49
2022/12/08 05:26:19;;;;;;;16.80;14.37;;;;;;;;;;5073817;28;20426;-49
2022/12/08 05:28:45;;;;;;;16.43;13.63;;;;;;;;;;5073616;28;20853;-49
2022/12/08 05:31:12;;;;;;;18.07;15.13;;;;;;;;;;5073807;28;20445;-49
2022/12/08 05:33:38;;;;;;;17.33;14.83;;;;;;;;;;5073586;28;20200;-49
2022/12/08 05:36:13;;;;;;;15.47;13.87;;;;;;;;;;5073660;28;20474;-49
2022/12/08 05:38:41;;;;;;;18.17;14.20;;;;;;;;;;5073540;28;20433;-49
2022/12/08 05:41:08;;;;;;;17.93;14.83;;;;;;;;;;5073476;28;20438;-49
2022/12/08 05:43:34;;;;;;;16.60;14.90;;;;;;;;;;5073318;28;20844;-48
2022/12/08 05:46:00;;;;;;;16.20;14.27;;;;;;;;;;5073443;28;20927;-49
2022/12/08 05:48:26;;;;;;;17.77;14.23;;;;;;;;;;5073432;28;20458;-48
2022/12/08 05:50:52;;;;;;;16.97;14.27;;;;;;;;;;5073264;28;20519;-49
2022/12/08 05:53:19;;;;;;;15.67;14.00;;;;;;;;;;5073403;28;20438;-48
2022/12/08 05:55:46;;;;;;;21.33;14.30;;;;;;;;;;5073317;28;20469;-49
2022/12/08 05:58:13;;;;;;;16.67;14.23;;;;;;;;;;5073248;28;20464;-49
2022/12/08 06:00:39;;;;;;;17.43;15.37;;;;;;;;;;5073018;28;20429;-53
2022/12/08 06:03:05;;;;;;;19.90;16.43;;;;;;;;;;5073162;28;20437;-49
2022/12/08 06:05:31;;;;;;;18.60;15.73;;;;;;;;;;5073003;28;20461;-48
2022/12/08 06:07:57;;;;;;;18.17;15.40;;;;;;;;;;5072922;28;20441;-49
2022/12/08 06:10:23;;;;;;;16.23;14.60;;;;;;;;;;5072816;28;20481;-49
2022/12/08 06:12:51;;;;;;;16.80;14.27;;;;;;;;;;5072785;28;20968;-49
2022/12/08 06:15:17;;;;;;;15.70;14.00;;;;;;;;;;5072840;28;20437;-48
2022/12/08 06:17:43;;;;;;;16.40;14.63;;;;;;;;;;5071563;28;20931;-49
2022/12/08 06:20:09;;;;;;;15.97;14.37;;;;;;;;;;5072775;28;20437;-49
2022/12/08 06:22:36;;;;;;;16.27;14.53;;;;;;;;;;5072556;28;20524;-49
2022/12/08 06:25:02;;;;;;;16.33;14.60;;;;;;;;;;5072523;28;20528;-48
2022/12/08 06:27:28;;;;;;;15.70;14.20;;;;;;;;;;5072559;28;20446;-50
2022/12/08 06:29:56;;;;;;;16.30;14.70;;;;;;;;;;5072508;28;20487;-49
2022/12/08 06:32:22;;;;;;;15.40;13.90;;;;;;;;;;5072313;28;20935;-48
2022/12/08 06:34:48;;;;;;;16.53;14.83;;;;;;;;;;5072225;28;20426;-49
2022/12/08 06:37:14;;;;;;;16.67;14.97;;;;;;;;;;5072036;28;20737;-49
2022/12/08 06:39:40;;;;;;;14.13;12.80;;;;;;;;;;5072108;28;20200;-48
2022/12/08 06:44:51;;;;;;;12.80;11.50;;;;;;;;;;5072182;28;20824;-48
2022/12/08 06:47:20;;;;;;;11.60;10.40;;;;;;;;;;5072276;28;20442;-48
2022/12/08 06:49:46;;;;;;;11.77;10.57;;;;;;;;;;5072033;28;20434;-49
2022/12/08 06:52:12;;;;;;;11.53;10.43;;;;;;;;;;5071943;28;20480;-49
2022/12/08 06:54:38;;;;;;;11.87;10.67;;;;;;;;;;5072258;28;20437;-48
2022/12/08 06:57:04;;;;;;;11.43;10.33;;;;;;;;;;5071899;28;21041;-48
2022/12/08 06:59:30;;;;;;;11.47;10.37;;;;;;;;;;5072145;28;20442;-49
2022/12/08 07:01:56;;;;;;;10.23;9.23;;;;;;;;;;5071944;28;20441;-48
2022/12/08 07:04:23;;;;;;;11.47;10.30;;;;;;;;;;5071986;28;20813;-49
2022/12/08 07:06:50;;;;;;;10.83;9.80;;;;;;;;;;5071750;28;20940;-49
2022/12/08 07:09:16;;;;;;;9.70;8.70;;;;;;;;;;5071713;28;20453;-49
2022/12/08 07:11:42;;;;;;;10.70;9.67;;;;;;;;;;5071980;28;20460;-49
2022/12/08 07:14:09;;;;;;;9.93;9.03;;;;;;;;;;5071831;28;20483;-49
2022/12/08 07:16:35;;;;;;;10.20;9.20;;;;;;;;;;5071547;28;20474;-49
2022/12/08 07:19:01;;;;;;;11.23;10.10;;;;;;;;;;5071661;28;20466;-49
2022/12/08 07:21:29;;;;;;;11.13;10.13;;;;;;;;;;5071623;28;20450;-49
2022/12/08 07:23:55;;;;;;;10.47;9.57;;;;;;;;;;5071578;28;20461;-49
2022/12/08 07:26:21;;;;;;;10.83;9.83;;;;;;;;;;5071606;28;20430;-48
2022/12/08 07:28:47;;;;;;;10.57;9.57;;;;;;;;;;5071640;28;20437;-49
2022/12/08 07:31:17;;;;;;;10.93;9.90;;;;;;;;;;5071747;28;20527;-47
2022/12/08 07:33:43;;;;;;;10.43;9.53;;;;;;;;;;5071656;28;20438;-47
2022/12/08 07:36:09;;;;;;;10.70;9.70;;;;;;;;;;5071470;28;20878;-47
2022/12/08 07:38:36;;;;;;;10.80;9.80;;;;;;;;;;5071494;28;20437;-48
2022/12/08 07:41:02;;;;;;;11.30;10.30;;;;;;;;;;5071347;28;20469;-48
2022/12/08 07:43:28;;;;;;;11.37;10.27;;;;;;;;;;5071551;28;20484;-48
2022/12/08 07:45:54;;;;;;;12.47;10.53;;;;;;;;;;5071439;28;20499;-48
2022/12/08 07:48:20;;;;;;;11.00;9.90;;;;;;;;;;5071740;28;20511;-49
2022/12/08 07:50:46;;;;;;;11.53;10.47;;;;;;;;;;5071096;28;20995;-48
2022/12/08 07:53:13;;;;;;;10.93;9.97;;;;;;;;;;5071536;28;20199;-49
2022/12/08 07:55:40;;;;;;;12.00;10.80;;;;;;;;;;5071140;28;20815;-49
2022/12/08 07:58:06;;;;;;;11.70;10.57;;;;;;;;;;5071619;28;20426;-49
2022/12/08 08:00:32;;;;;;;12.60;11.30;;;;;;;;;;5071146;28;20533;-49
2022/12/08 08:02:58;;;;;;;13.33;12.03;;;;;;;;;;5071235;28;20437;-49
2022/12/08 08:05:24;;;;;;;12.53;11.33;;;;;;;;;;5071454;28;20445;-49
2022/12/08 08:07:50;;;;;;;13.40;11.87;;;;;;;;;;5071057;28;20437;-49
2022/12/08 08:10:17;;;;;;;11.57;10.37;;;;;;;;;;5071160;28;20963;-49
2022/12/08 08:12:44;;;;;;;11.70;10.63;;;;;;;;;;5071544;28;20566;-53
2022/12/08 08:15:10;;;;;;;12.07;10.97;;;;;;;;;;5071064;28;20960;-48
2022/12/08 08:17:37;;;;;;;13.83;12.53;;;;;;;;;;5071125;28;20521;-48
2022/12/08 08:20:05;;;;;;;11.37;10.27;;;;;;;;;;5071187;28;20442;-48
2022/12/08 08:22:31;;;;;;;12.63;11.43;;;;;;;;;;5071038;28;20425;-47
2022/12/08 08:24:57;;;;;;;13.67;12.27;;;;;;;;;;5070978;28;20449;-46
2022/12/08 08:27:24;;;;;;;14.17;12.60;;;;;;;;;;5071166;28;20191;-46
2022/12/08 08:29:51;;;;;;;13.20;11.90;;;;;;;;;;5071154;28;20492;-46
2022/12/08 08:32:17;;;;;;;13.20;11.97;;;;;;;;;;5071289;28;20466;-47
2022/12/08 08:34:43;;;;;;;12.87;11.60;;;;;;;;;;5071080;28;20461;-46
2022/12/08 08:37:09;;;;;;;12.70;11.50;;;;;;;;;;5071202;28;20476;-46
2022/12/08 08:39:35;;;;;;;11.47;10.37;;;;;;;;;;5071054;28;20450;-46
2022/12/08 08:42:01;;;;;;;12.33;11.23;;;;;;;;;;5074049;28;20199;-45
2022/12/08 08:44:27;;;;;;;11.20;10.20;;;;;;;;;;5074746;28;20223;-47
2022/12/08 08:46:54;;;;;;;12.47;11.27;;;;;;;;;;5074524;28;20430;-47
2022/12/08 08:49:20;;;;;;;13.20;11.90;;;;;;;;;;5074692;28;20469;-47
2022/12/08 08:51:47;;;;;;;12.80;11.60;;;;;;;;;;5074427;28;20570;-47
2022/12/08 08:54:13;;;;;;;12.67;11.47;;;;;;;;;;5074484;28;20575;-47
2022/12/08 08:56:39;;;;;;;12.47;11.27;;;;;;;;;;5070166;28;20702;-46
2022/12/08 08:59:05;;;;;;;13.07;11.87;;;;;;;;;;5069741;28;20528;-46
2022/12/08 09:01:31;;;;;;;13.90;12.57;;;;;;;;;;5074144;28;20441;-46
2022/12/08 09:03:58;;;;;;;12.13;10.93;;;;;;;;;;5074403;28;20430;-46
2022/12/08 09:06:26;;;;;;;12.23;11.03;;;;;;;;;;5073761;28;20803;-46
2022/12/08 09:08:52;;;;;;;11.83;10.73;;;;;;;;;;5071080;28;20510;-46
2022/12/08 09:11:18;;;;;;;11.77;10.33;;;;;;;;;;5071748;28;20446;-46
2022/12/08 09:13:48;;;;;;;12.07;10.47;;;;;;;;;;5073849;28;20429;-46
2022/12/08 09:16:14;;;;;;;11.70;10.23;;;;;;;;;;5073925;28;20528;-46
2022/12/08 09:18:40;;;;;;;9.83;8.93;;;;;;;;;;5073514;28;20790;-45
2022/12/08 09:21:08;;;;;;;10.93;9.83;;;;;;;;;;5072265;28;20445;-46
2022/12/08 09:23:34;;;;;;;10.07;9.17;;;;;;;;;;5072036;28;21028;-46
2022/12/08 09:26:01;;;;;;;11.10;9.97;;;;;;;;;;5073574;28;20426;-46
2022/12/08 09:28:27;;;;;;;9.17;8.30;;;;;;;;;;5073966;28;20517;-46
2022/12/08 09:30:53;;;;;;;10.67;9.23;;;;;;;;;;5073554;28;20441;-47
2022/12/08 09:33:19;;;;;;;10.63;9.70;;;;;;;;;;5073643;28;20990;-47
2022/12/08 09:35:45;;;;;;;9.70;8.80;;;;;;;;;;5074268;28;20207;-48
2022/12/08 09:38:13;;;;;;;10.13;9.13;;;;;;;;;;5073731;28;20434;-47
2022/12/08 09:40:41;;;;;;;9.53;8.60;;;;;;;;;;5073410;28;20434;-46
2022/12/08 09:43:10;;;;;;;8.87;8.00;;;;;;;;;;5073594;28;20488;-47
2022/12/08 09:45:36;;;;;;;9.00;8.10;;;;;;;;;;5073376;28;20442;-47
2022/12/08 09:48:04;;;;;;;8.97;8.17;;;;;;;;;;5073487;28;20793;-47
2022/12/08 09:50:33;;;;;;;9.50;8.60;;;;;;;;;;5073183;28;20485;-47
2022/12/08 09:53:02;;;;;;;9.43;8.63;;;;;;;;;;5072232;28;20563;-48
2022/12/08 09:55:35;;;;;;;9.20;8.40;;;;;;;;;;5073197;28;20479;-46
2022/12/08 09:58:03;;;;;;;8.93;8.07;;;;;;;;;;5073221;28;20453;-46
2022/12/08 10:00:29;;;;;;;9.43;8.60;;;;;;;;;;5073037;28;20434;-48
2022/12/08 10:02:56;;;;;;;9.33;8.17;;;;;;;;;;5072862;28;20520;-47
2022/12/08 10:05:24;;;;;;;8.37;7.67;;;;;;;;;;5073067;28;20441;-47
2022/12/08 10:07:56;;;;;;;8.80;7.77;;;;;;;;;;5072966;28;20468;-47
2022/12/08 10:10:28;;;;;;;8.60;7.80;;;;;;;;;;5072868;28;20453;-48
2022/12/08 10:13:00;;;;;;;8.03;7.30;;;;;;;;;;5072784;28;20448;-46
2022/12/08 10:15:30;;;;;;;8.53;7.73;;;;;;;;;;5072812;28;20444;-47
2022/12/08 10:17:57;;;;;;;7.57;6.93;;;;;;;;;;5072704;28;20477;-46
2022/12/08 10:20:24;;;;;;;7.27;6.40;;;;;;;;;;5072772;28;20453;-47
2022/12/08 10:22:51;;;;;;;7.90;7.07;;;;;;;;;;5072733;28;20845;-47
2022/12/08 10:25:19;;;;;;;8.10;7.13;;;;;;;;;;5072603;28;20961;-47
2022/12/08 10:27:47;;;;;;;7.43;6.83;;;;;;;;;;5072569;28;20430;-47
2022/12/08 10:30:16;;;;;;;7.57;6.87;;;;;;;;;;5067254;28;20449;-46
2022/12/08 10:32:44;;;;;;;7.27;6.57;;;;;;;;;;5072318;28;21017;-47
2022/12/08 10:35:11;;;;;;;8.63;7.30;;;;;;;;;;5072542;28;20945;-47
2022/12/08 10:37:38;;;;;;;8.83;6.67;;;;;;;;;;5071952;28;20523;-47
2022/12/08 10:40:09;;;;;;;7.63;6.93;;;;;;;;;;5071830;28;20452;-47
2022/12/08 10:42:36;;;;;;;6.77;6.17;;;;;;;;;;5072262;28;20495;-46
2022/12/08 10:45:22;;;;;;;6.73;6.03;;;;;;;;;;5072119;28;20426;-46
2022/12/08 10:47:59;;;;;;;6.83;6.23;;;;;;;;;;5070485;28;20483;-46
2022/12/08 10:50:28;;;;;;;6.93;6.37;;;;;;;;;;5072286;28;20508;-48
2022/12/08 10:52:55;;;;;;;6.57;5.97;;;;;;;;;;5072360;28;20441;-46
2022/12/08 10:55:22;;;;;;;7.60;5.93;;;;;;;;;;5072275;28;20437;-46
2022/12/08 10:57:48;;;;;;;7.20;6.57;;;;;;;;;;5072061;28;20503;-46
2022/12/08 11:00:15;;;;;;;6.20;5.60;;;;;;;;;;5072266;28;20465;-47
2022/12/08 11:02:54;;;;;;;6.13;5.57;;;;;;;;;;5072139;28;20967;-47
2022/12/08 11:05:21;;;;;;;7.00;5.67;;;;;;;;;;5072083;28;20444;-46
2022/12/08 11:07:47;;;;;;;6.47;5.87;;;;;;;;;;5071992;28;20446;-47
2022/12/08 11:10:16;;;;;;;6.10;5.60;;;;;;;;;;5072026;28;20458;-47
2022/12/08 11:12:43;;;;;;;6.17;5.30;;;;;;;;;;5071991;28;20454;-46
2022/12/08 11:15:14;;;;;;;6.90;5.63;;;;;;;;;;5072271;28;20585;-46
2022/12/08 11:17:40;;;;;;;5.90;5.00;;;;;;;;;;5071857;28;20470;-47
2022/12/08 11:20:20;;;;;;;5.50;5.00;;;;;;;;;;5071931;28;20805;-46
2022/12/08 11:22:50;;;;;;;5.50;5.00;;;;;;;;;;5071695;28;20450;-46
2022/12/08 11:25:18;;;;;;;5.10;4.60;;;;;;;;;;5071798;28;20473;-47
2022/12/08 11:27:45;;;;;;;5.33;4.83;;;;;;;;;;5071773;28;20685;-47
2022/12/08 11:30:14;;;;;;;5.77;5.03;;;;;;;;;;5071937;28;20449;-47
2022/12/08 11:32:41;;;;;;;5.30;4.90;;;;;;;;;;5071638;28;20430;-46
2022/12/08 11:35:09;;;;;;;5.67;5.17;;;;;;;;;;5071898;28;20861;-48
2022/12/08 11:37:39;;;;;;;4.83;4.37;;;;;;;;;;5071515;28;20481;-46
2022/12/08 11:40:07;;;;;;;4.90;4.50;;;;;;;;;;5071479;28;20529;-46
2022/12/08 11:42:37;;;;;;;5.33;4.83;;;;;;;;;;5071605;28;20798;-46
2022/12/08 11:45:05;;;;;;;5.43;4.93;;;;;;;;;;5071754;28;20434;-48
2022/12/08 11:47:34;;;;;;;5.10;4.70;;;;;;;;;;5071618;28;20434;-46
2022/12/08 11:50:01;;;;;;;5.43;4.97;;;;;;;;;;5071414;28;20508;-47
2022/12/08 11:52:30;;;;;;;4.60;4.20;;;;;;;;;;5071632;28;20777;-47
2022/12/08 11:54:59;;;;;;;4.70;4.30;;;;;;;;;;5071382;28;20533;-47
2022/12/08 11:57:25;;;;;;;4.63;4.27;;;;;;;;;;5071526;28;20473;-48
2022/12/08 11:59:54;;;;;;;5.27;4.77;;;;;;;;;;5071359;28;20532;-46
2022/12/08 12:02:20;;;;;;;4.83;4.43;;;;;;;;;;5071576;28;20871;-46
2022/12/08 12:04:48;;;;;;;4.90;4.40;;;;;;;;;;5071253;28;20809;-47
2022/12/08 12:07:29;;;;;;;5.17;4.23;;;;;;;;;;5071487;28;20437;-47
2022/12/08 12:10:06;;;;;;;4.77;4.37;;;;;;;;;;5071174;28;20537;-49
2022/12/08 12:12:39;;;;;;;4.90;4.40;;;;;;;;;;5071349;28;20437;-47
2022/12/08 12:15:24;;;;;;;4.70;4.30;;;;;;;;;;5071382;28;20544;-47
2022/12/08 12:17:52;;;;;;;4.97;4.40;;;;;;;;;;5075055;28;20485;-47
2022/12/08 12:20:20;;;;;;;4.43;4.10;;;;;;;;;;5075063;28;20445;-47
2022/12/08 12:22:49;;;;;;;5.23;4.60;;;;;;;;;;5075058;28;20452;-47
2022/12/08 12:25:18;;;;;;;4.87;4.40;;;;;;;;;;5074986;28;20475;-48
2022/12/08 12:27:45;;;;;;;5.40;4.90;;;;;;;;;;5074946;28;20845;-48
2022/12/08 12:30:18;;;;;;;5.27;4.83;;;;;;;;;;5074776;28;20461;-48
2022/12/08 12:32:46;;;;;;;4.80;4.37;;;;;;;;;;5074887;28;20460;-47
2022/12/08 12:35:16;;;;;;;4.77;4.37;;;;;;;;;;5074902;28;20491;-48
2022/12/08 12:37:43;;;;;;;4.33;3.90;;;;;;;;;;5073346;28;21237;-48
2022/12/08 12:40:15;;;;;;;4.00;3.70;;;;;;;;;;5074822;28;20513;-47
2022/12/08 12:42:43;;;;;;;3.97;3.50;;;;;;;;;;5074786;28;20446;-47
2022/12/08 12:45:11;;;;;;;4.57;3.87;;;;;;;;;;5074763;28;20458;-48
2022/12/08 12:47:45;;;;;;;3.80;3.50;;;;;;;;;;5074700;28;20200;-47
2022/12/08 12:50:12;;;;;;;4.20;3.77;;;;;;;;;;5074424;28;20847;-47
2022/12/08 12:52:39;;;;;;;4.30;3.97;;;;;;;;;;5074713;28;20434;-48
2022/12/08 12:55:22;;;;;;;5.00;4.50;;;;;;;;;;5074315;28;21004;-47
2022/12/08 12:57:51;;;;;;;3.83;3.53;;;;;;;;;;5074375;28;20495;-47
2022/12/08 13:00:19;;;;;;;4.20;3.80;;;;;;;;;;5074502;28;20528;-48
2022/12/08 13:02:47;;;;;;;4.27;3.70;;;;;;;;;;5074414;28;20537;-48
2022/12/08 13:05:16;;;;;;;4.27;3.67;;;;;;;;;;5074398;28;20519;-48
2022/12/08 13:07:47;;;;;;;4.30;3.93;;;;;;;;;;5074338;28;21000;-54
2022/12/08 13:10:17;;;;;;;4.97;4.20;;;;;;;;;;5074364;28;20478;-49
2022/12/08 13:12:44;;;;;;;3.97;3.67;;;;;;;;;;5074121;28;20492;-47
2022/12/08 13:15:17;;;;;;;4.80;4.40;;;;;;;;;;5074286;28;20437;-46
2022/12/08 13:17:44;;;;;;;4.77;4.10;;;;;;;;;;5074031;28;20552;-48
2022/12/08 13:20:18;;;;;;;4.80;4.40;;;;;;;;;;5074114;28;20806;-47
2022/12/08 13:22:49;;;;;;;4.87;4.47;;;;;;;;;;5074061;28;20810;-47
2022/12/08 13:25:33;;;;;;;4.40;4.00;;;;;;;;;;5074384;28;20426;-48
2022/12/08 13:28:08;;;;;;;5.17;4.20;;;;;;;;;;5073933;28;20521;-48
2022/12/08 13:30:43;;;;;;;4.30;4.00;;;;;;;;;;5074040;28;20532;-48
2022/12/08 13:33:16;;;;;;;3.80;3.50;;;;;;;;;;5073829;28;20450;-46
2022/12/08 13:35:45;;;;;;;6.10;3.73;;;;;;;;;;5073701;28;20483;-48
2022/12/08 13:38:12;;;;;;;4.20;3.50;;;;;;;;;;5074072;28;20217;-48
2022/12/08 13:40:41;;;;;;;4.07;3.73;;;;;;;;;;5073758;28;20453;-47
2022/12/08 13:43:15;;;;;;;4.67;4.00;;;;;;;;;;5073562;28;20430;-48
2022/12/08 13:45:43;;;;;;;4.50;3.80;;;;;;;;;;5073932;28;20787;-47
2022/12/08 13:48:12;;;;;;;3.93;3.53;;;;;;;;;;5073606;28;20445;-48
2022/12/08 13:50:40;;;;;;;4.77;4.07;;;;;;;;;;5073244;28;20482;-47
2022/12/08 13:53:11;;;;;;;5.07;4.50;;;;;;;;;;5073472;28;20441;-48
2022/12/08 13:55:40;;;;;;;5.97;4.40;;;;;;;;;;5073311;28;20441;-47
2022/12/08 13:58:06;;;;;;;6.20;4.27;;;;;;;;;;5073514;28;20452;-47
2022/12/08 14:00:32;;;;;;;4.73;4.33;;;;;;;;;;5073528;28;20434;-48
2022/12/08 14:03:00;;;;;;;5.50;4.53;;;;;;;;;;5073118;28;20721;-47
2022/12/08 14:05:28;;;;;;;5.00;4.50;;;;;;;;;;5072336;28;20487;-47
2022/12/08 14:07:55;;;;;;;5.20;4.70;;;;;;;;;;5072843;28;20456;-47
2022/12/08 14:10:23;;;;;;;5.23;4.73;;;;;;;;;;5072821;28;20465;-48
2022/12/08 14:12:51;;;;;;;5.57;5.07;;;;;;;;;;5072920;28;20438;-47
2022/12/08 14:15:18;;;;;;;5.03;4.53;;;;;;;;;;5073080;28;20501;-47
2022/12/08 14:17:51;;;;;;;6.53;5.37;;;;;;;;;;5070987;28;20572;-47
2022/12/08 14:20:19;;;;;;;5.63;5.03;;;;;;;;;;5072409;28;20437;-46
2022/12/08 14:22:45;;;;;;;5.30;4.90;;;;;;;;;;5070850;28;20446;-46
2022/12/08 14:25:14;;;;;;;5.80;5.30;;;;;;;;;;5072497;28;20492;-46
2022/12/08 14:27:42;;;;;;;7.83;5.43;;;;;;;;;;5072261;28;20908;-46
2022/12/08 14:30:15;;;;;;;5.67;4.33;;;;;;;;;;5072347;28;20960;-47
2022/12/08 14:32:43;;;;;;;5.57;5.07;;;;;;;;;;5070523;28;20448;-47
2022/12/08 14:35:15;;;;;;;5.73;5.23;;;;;;;;;;5072265;28;20512;-47
2022/12/08 14:37:43;;;;;;;7.30;5.60;;;;;;;;;;5071926;28;20528;-47
2022/12/08 14:40:18;;;;;;;5.90;5.30;;;;;;;;;;5071295;28;20441;-47
2022/12/08 14:42:45;;;;;;;5.83;5.30;;;;;;;;;;5072124;28;20461;-48